Time;durP1;ratioP1;P1;durP2;ratioP2;P2;SDS_P1;SDS_P2;PMS_P1;PMS_P2;Temp;Humidity;BMP_temperature;BMP_pressure;BME280_temperature;BME280_humidity;BME280_pressure;Samples;Min_cycle;Max_cycle;Signal;HPM_P1;HPM_P2
2021/04/16 00:00:55;;;;;;;3.70;1.50;;;5.20;99.90;;;;;;5133796;27;20603;-83
2021/04/16 00:03:21;;;;;;;1.83;1.70;;;5.30;99.90;;;;;;5133535;27;20203;-82
2021/04/16 00:05:49;;;;;;;4.25;1.92;;;5.30;99.90;;;;;;5133828;27;20540;-83
2021/04/16 00:08:19;;;;;;;3.72;1.90;;;5.30;99.90;;;;;;5130657;27;20221;-82
2021/04/16 00:10:48;;;;;;;2.25;1.42;;;5.30;99.90;;;;;;5133930;27;20195;-83
2021/04/16 00:13:16;;;;;;;1.50;1.27;;;5.30;99.90;;;;;;5133643;27;20251;-83
2021/04/16 00:15:45;;;;;;;3.45;2.08;;;5.20;99.90;;;;;;5133736;27;20187;-82
2021/04/16 00:18:13;;;;;;;1.67;1.50;;;5.20;99.90;;;;;;5132722;27;20226;-82
2021/04/16 00:20:39;;;;;;;3.10;1.50;;;5.30;99.90;;;;;;5116902;28;20266;-82
2021/04/16 00:23:07;;;;;;;1.85;1.50;;;5.30;99.90;;;;;;5133449;27;20317;-82
2021/04/16 00:25:34;;;;;;;3.33;1.90;;;5.40;99.90;;;;;;5133513;28;20190;-82
2021/04/16 00:28:01;;;;;;;2.45;1.55;;;5.40;99.90;;;;;;5127968;28;20192;-83
2021/04/16 00:30:30;;;;;;;1.52;1.20;;;5.40;99.90;;;;;;5133661;27;20214;-83
2021/04/16 00:32:57;;;;;;;1.40;1.30;;;5.40;99.90;;;;;;5133528;27;20191;-83
2021/04/16 00:35:23;;;;;;;5.88;1.90;;;5.30;99.90;;;;;;5133752;28;20211;-84
2021/04/16 00:37:49;;;;;;;9.25;3.88;;;5.40;99.90;;;;;;5133727;27;20218;-85
2021/04/16 00:40:18;;;;;;;1.70;1.58;;;5.30;99.90;;;;;;5133627;28;20210;-82
2021/04/16 00:42:51;;;;;;;2.25;1.90;;;5.30;99.90;;;;;;5133639;28;20239;-83
2021/04/16 00:45:18;;;;;;;3.47;2.03;;;5.30;99.90;;;;;;5133864;27;20211;-82
2021/04/16 00:47:44;;;;;;;1.70;1.60;;;5.30;99.90;;;;;;5133677;28;20223;-82
2021/04/16 00:50:14;;;;;;;5.05;1.65;;;5.40;99.90;;;;;;5133802;28;20219;-82
2021/04/16 00:52:40;;;;;;;2.55;1.55;;;5.30;99.90;;;;;;5116798;28;20212;-82
2021/04/16 00:55:08;;;;;;;1.48;1.35;;;5.30;99.90;;;;;;5133417;28;20250;-85
2021/04/16 00:57:35;;;;;;;3.55;1.50;;;5.30;99.90;;;;;;5133602;27;20226;-85
2021/04/16 01:00:03;;;;;;;3.63;1.60;;;5.30;99.90;;;;;;5133455;27;20215;-85
2021/04/16 01:02:29;;;;;;;2.30;1.40;;;5.40;99.90;;;;;;5133894;28;20184;-85
2021/04/16 01:04:55;;;;;;;1.75;1.30;;;5.40;99.90;;;;;;5133137;27;20237;-87
2021/04/16 01:07:22;;;;;;;1.90;1.30;;;5.40;99.90;;;;;;5133356;28;20217;-86
2021/04/16 01:09:50;;;;;;;2.67;1.35;;;5.40;99.90;;;;;;5133256;27;20242;-86
2021/04/16 01:12:17;;;;;;;4.07;1.67;;;5.40;99.90;;;;;;5132899;28;20215;-85
2021/04/16 01:14:46;;;;;;;1.90;1.40;;;5.40;99.90;;;;;;5133175;28;20215;-86
2021/04/16 01:17:14;;;;;;;4.38;1.25;;;5.40;99.90;;;;;;5133292;28;20273;-86
2021/04/16 01:19:45;;;;;;;1.50;1.00;;;5.40;99.90;;;;;;5132984;27;20234;-83
2021/04/16 01:22:17;;;;;;;1.80;1.20;;;5.50;99.90;;;;;;5133071;28;20260;-83
2021/04/16 01:24:44;;;;;;;2.05;1.40;;;5.40;99.90;;;;;;5116492;28;20235;-83
2021/04/16 01:27:12;;;;;;;3.83;1.90;;;5.40;99.90;;;;;;5133041;28;20272;-83
2021/04/16 01:29:40;;;;;;;6.13;1.50;;;5.50;99.90;;;;;;5136262;27;20194;-82
2021/04/16 01:32:07;;;;;;;1.10;1.00;;;5.40;99.90;;;;;;5136677;27;20232;-83
2021/04/16 01:34:33;;;;;;;5.22;1.23;;;5.40;99.90;;;;;;5136401;27;20937;-83
2021/04/16 01:37:00;;;;;;;5.40;1.50;;;5.40;99.90;;;;;;5136737;27;20222;-85
2021/04/16 01:39:28;;;;;;;3.08;1.50;;;5.30;99.90;;;;;;5136654;27;20183;-85
2021/04/16 01:41:55;;;;;;;3.33;1.38;;;5.40;99.90;;;;;;5136487;27;20215;-82
2021/04/16 01:44:25;;;;;;;3.22;1.58;;;5.40;99.90;;;;;;5136416;27;20226;-82
2021/04/16 01:46:57;;;;;;;4.90;1.45;;;5.40;99.90;;;;;;5136483;27;20187;-82
2021/04/16 01:49:25;;;;;;;3.63;1.13;;;5.40;99.90;;;;;;5136255;27;20187;-82
2021/04/16 01:51:51;;;;;;;3.90;1.40;;;5.40;99.90;;;;;;5136447;27;20242;-83
2021/04/16 01:54:20;;;;;;;2.35;1.13;;;5.40;99.90;;;;;;5136322;27;20191;-82
2021/04/16 01:56:49;;;;;;;5.18;1.00;;;5.40;99.90;;;;;;5136095;27;20717;-83
2021/04/16 01:59:17;;;;;;;1.83;1.50;;;5.30;99.90;;;;;;5136303;27;20222;-84
2021/04/16 02:01:44;;;;;;;2.88;1.00;;;5.40;99.90;;;;;;5136174;27;20210;-83
2021/04/16 02:04:10;;;;;;;2.15;1.40;;;5.30;99.90;;;;;;5135806;27;20221;-83
2021/04/16 02:06:37;;;;;;;2.55;1.20;;;5.30;99.90;;;;;;5135958;27;20187;-81
2021/04/16 02:09:06;;;;;;;2.90;1.23;;;5.40;99.90;;;;;;5136042;27;20184;-82
2021/04/16 02:11:32;;;;;;;1.60;1.15;;;5.30;99.90;;;;;;5136063;27;20184;-83
2021/04/16 02:13:58;;;;;;;3.38;1.42;;;5.40;99.90;;;;;;5135776;27;20240;-83
2021/04/16 02:16:25;;;;;;;1.50;1.08;;;5.50;99.90;;;;;;5135673;27;20187;-82
2021/04/16 02:18:52;;;;;;;3.35;1.60;;;5.50;99.90;;;;;;5135574;27;20215;-83
2021/04/16 02:21:18;;;;;;;5.20;1.20;;;5.40;99.90;;;;;;5135703;27;20224;-87
2021/04/16 02:23:44;;;;;;;2.65;1.25;;;5.50;99.90;;;;;;5135593;27;20242;-82
2021/04/16 02:26:10;;;;;;;4.38;1.35;;;5.50;99.90;;;;;;5135689;27;20274;-81
2021/04/16 02:28:36;;;;;;;4.28;1.17;;;5.50;99.90;;;;;;5135614;27;20223;-81
2021/04/16 02:31:02;;;;;;;1.20;1.10;;;5.50;99.90;;;;;;5135576;27;20274;-83
2021/04/16 02:33:30;;;;;;;2.67;1.35;;;5.50;99.90;;;;;;5135213;27;20191;-82
2021/04/16 02:35:56;;;;;;;2.33;1.50;;;5.60;99.90;;;;;;5135691;27;20270;-82
2021/04/16 02:38:22;;;;;;;1.70;1.42;;;5.60;99.90;;;;;;5135318;27;20225;-83
2021/04/16 02:40:48;;;;;;;1.67;1.20;;;5.60;99.90;;;;;;5135014;27;20209;-85
2021/04/16 02:43:14;;;;;;;4.28;1.52;;;5.60;99.90;;;;;;5135074;27;20685;-82
2021/04/16 02:45:40;;;;;;;4.10;1.20;;;5.50;99.90;;;;;;5135080;27;20222;-82
2021/04/16 02:48:07;;;;;;;3.15;1.20;;;5.50;99.90;;;;;;5134866;27;20765;-83
2021/04/16 02:50:34;;;;;;;4.20;1.63;;;5.50;99.90;;;;;;5135100;27;20226;-86
2021/04/16 02:53:00;;;;;;;4.40;1.50;;;5.50;99.90;;;;;;5135147;27;20816;-82
2021/04/16 02:55:26;;;;;;;2.85;1.58;;;5.50;99.90;;;;;;5134909;27;20272;-82
2021/04/16 02:57:52;;;;;;;1.50;1.25;;;5.50;99.90;;;;;;5135138;27;20543;-83
2021/04/16 03:00:21;;;;;;;1.58;1.48;;;5.50;99.90;;;;;;5135287;27;20183;-84
2021/04/16 03:02:47;;;;;;;1.52;1.20;;;5.40;99.90;;;;;;5134997;27;20232;-87
2021/04/16 03:05:14;;;;;;;1.25;1.00;;;5.50;99.90;;;;;;5135176;27;20653;-90
2021/04/16 03:07:41;;;;;;;2.70;1.25;;;5.50;99.90;;;;;;5135670;27;20222;-86
2021/04/16 03:10:09;;;;;;;1.83;1.20;;;5.50;99.90;;;;;;5134870;27;20237;-86
2021/04/16 03:12:35;;;;;;;2.47;1.60;;;5.50;99.90;;;;;;5128068;27;20190;-84
2021/04/16 03:15:02;;;;;;;2.65;1.63;;;5.50;99.90;;;;;;5126785;27;20184;-84
2021/04/16 03:17:28;;;;;;;5.13;1.45;;;5.50;99.90;;;;;;5127417;27;20184;-91
2021/04/16 03:19:54;;;;;;;2.08;1.10;;;5.50;99.90;;;;;;5125406;27;20187;-84
2021/04/16 03:22:20;;;;;;;5.00;1.50;;;5.50;99.90;;;;;;5134311;27;20688;-87
2021/04/16 03:24:47;;;;;;;4.68;1.20;;;5.50;99.90;;;;;;5134816;27;20218;-89
2021/04/16 03:27:14;;;;;;;2.03;1.27;;;5.50;99.90;;;;;;5135049;27;20680;-93
2021/04/16 03:29:40;;;;;;;3.75;1.30;;;5.50;99.90;;;;;;5135187;27;20202;-86
2021/04/16 03:32:07;;;;;;;5.65;1.20;;;5.50;99.90;;;;;;5134394;27;20203;-85
2021/04/16 03:34:33;;;;;;;2.55;1.45;;;5.50;99.90;;;;;;5131126;27;20230;-83
2021/04/16 03:36:59;;;;;;;3.08;1.55;;;5.50;99.90;;;;;;5134092;27;20211;-84
2021/04/16 03:39:25;;;;;;;2.33;1.40;;;5.40;99.90;;;;;;5123790;27;20211;-84
2021/04/16 03:41:52;;;;;;;2.05;1.10;;;5.40;99.90;;;;;;5134159;27;20236;-83
2021/04/16 03:44:18;;;;;;;1.58;1.20;;;5.50;99.90;;;;;;5130451;27;20250;-84
2021/04/16 03:46:44;;;;;;;1.45;0.90;;;5.50;99.90;;;;;;5128513;27;20203;-86
2021/04/16 03:49:10;;;;;;;3.85;1.30;;;5.40;99.90;;;;;;5123854;27;20270;-84
2021/04/16 03:51:50;;;;;;;3.95;1.20;;;5.50;99.90;;;;;;5123381;27;20191;-84
2021/04/16 03:54:16;;;;;;;5.93;1.30;;;5.50;99.90;;;;;;5119611;27;20180;-85
2021/04/16 03:56:42;;;;;;;5.22;1.10;;;5.40;99.90;;;;;;5127982;27;20219;-87
2021/04/16 03:59:09;;;;;;;7.40;1.27;;;5.50;99.90;;;;;;5134132;27;20180;-84
2021/04/16 04:01:36;;;;;;;2.35;1.38;;;5.50;99.90;;;;;;5129861;27;20180;-84
2021/04/16 04:04:02;;;;;;;2.30;1.27;;;5.40;99.90;;;;;;5132524;27;20214;-84
2021/04/16 04:06:28;;;;;;;2.65;1.60;;;5.40;99.90;;;;;;5129666;27;20270;-83
2021/04/16 04:08:54;;;;;;;5.03;1.70;;;5.40;99.90;;;;;;5122996;27;20677;-83
2021/04/16 04:11:21;;;;;;;2.10;1.45;;;5.30;99.90;;;;;;5123177;27;20184;-82
2021/04/16 04:13:47;;;;;;;6.97;1.80;;;5.40;99.90;;;;;;5126314;27;20187;-84
2021/04/16 04:16:13;;;;;;;3.35;1.58;;;5.40;99.90;;;;;;5133658;27;20554;-84
2021/04/16 04:18:39;;;;;;;2.60;1.50;;;5.40;99.90;;;;;;5113000;28;20279;-84
2021/04/16 04:21:06;;;;;;;3.65;1.27;;;5.40;99.90;;;;;;5120593;27;20210;-84
2021/04/16 04:23:32;;;;;;;4.65;1.30;;;5.40;99.90;;;;;;5133616;27;20289;-84
2021/04/16 04:25:58;;;;;;;1.70;0.90;;;5.40;99.90;;;;;;5133483;27;20190;-84
2021/04/16 04:28:25;;;;;;;2.45;1.45;;;5.50;99.90;;;;;;5133592;27;20187;-84
2021/04/16 04:30:51;;;;;;;5.00;1.20;;;5.50;99.90;;;;;;5133769;28;20194;-85
2021/04/16 04:33:18;;;;;;;3.03;1.30;;;5.50;99.90;;;;;;5133612;27;20187;-82
2021/04/16 04:35:44;;;;;;;3.15;1.23;;;5.50;99.90;;;;;;5133341;28;20269;-82
2021/04/16 04:38:10;;;;;;;2.45;1.55;;;5.50;99.90;;;;;;5133479;28;20225;-84
2021/04/16 04:40:36;;;;;;;2.08;1.30;;;5.60;99.90;;;;;;5133400;27;20768;-84
2021/04/16 04:43:03;;;;;;;4.50;1.25;;;5.50;99.90;;;;;;5133528;27;20301;-82
2021/04/16 04:45:29;;;;;;;3.53;1.30;;;5.50;99.90;;;;;;5133413;28;20657;-83
2021/04/16 04:47:55;;;;;;;2.05;1.33;;;5.50;99.90;;;;;;5133120;28;20612;-83
2021/04/16 04:50:25;;;;;;;5.40;1.40;;;5.50;99.90;;;;;;5133291;28;20218;-82
2021/04/16 04:52:53;;;;;;;2.00;1.30;;;5.60;99.90;;;;;;5133300;28;20197;-83
2021/04/16 04:55:22;;;;;;;2.92;1.30;;;5.60;99.90;;;;;;5133018;27;20215;-82
2021/04/16 04:57:48;;;;;;;2.92;1.38;;;5.60;99.90;;;;;;5133340;28;20279;-83
2021/04/16 05:00:16;;;;;;;2.85;1.33;;;5.60;99.90;;;;;;5133114;27;20665;-83
2021/04/16 05:02:42;;;;;;;2.72;1.50;;;5.60;99.90;;;;;;5133705;27;20275;-83
2021/04/16 05:05:10;;;;;;;4.00;1.45;;;5.70;99.90;;;;;;5137209;27;20219;-83
2021/04/16 05:07:37;;;;;;;4.85;1.67;;;5.60;99.90;;;;;;5136902;27;20275;-82
2021/04/16 05:10:05;;;;;;;2.28;1.35;;;5.60;99.90;;;;;;5137046;27;20184;-83
2021/04/16 05:12:31;;;;;;;2.00;1.40;;;5.70;99.90;;;;;;5137034;27;20270;-83
2021/04/16 05:14:57;;;;;;;1.65;1.48;;;5.60;99.90;;;;;;5137277;27;20281;-83
2021/04/16 05:17:24;;;;;;;4.15;1.45;;;5.70;99.90;;;;;;5136915;27;20270;-83
2021/04/16 05:19:50;;;;;;;3.72;1.75;;;5.80;99.90;;;;;;5136892;27;20268;-82
2021/04/16 05:22:16;;;;;;;2.17;1.63;;;5.80;99.90;;;;;;5136581;27;20211;-83
2021/04/16 05:24:43;;;;;;;6.85;1.45;;;5.80;99.90;;;;;;5136949;27;20238;-83
2021/04/16 05:27:11;;;;;;;2.67;1.55;;;5.90;99.90;;;;;;5136788;27;20266;-82
2021/04/16 05:29:37;;;;;;;3.20;1.52;;;5.90;99.90;;;;;;5136824;27;20190;-83
2021/04/16 05:32:04;;;;;;;4.32;1.75;;;6.00;99.90;;;;;;5136651;27;20274;-83
2021/04/16 05:34:30;;;;;;;2.10;1.90;;;6.00;99.90;;;;;;5136710;27;20221;-83
2021/04/16 05:36:57;;;;;;;4.20;1.52;;;6.00;99.90;;;;;;5136202;27;20601;-83
2021/04/16 05:39:23;;;;;;;3.00;1.58;;;6.10;99.90;;;;;;5136378;27;20183;-82
2021/04/16 05:41:53;;;;;;;3.90;1.42;;;6.20;99.90;;;;;;5136603;27;20218;-84
2021/04/16 05:44:19;;;;;;;1.33;1.15;;;6.10;99.90;;;;;;5136296;27;20263;-83
2021/04/16 05:46:45;;;;;;;5.95;1.48;;;6.20;99.90;;;;;;5136229;27;20233;-83
2021/04/16 05:49:12;;;;;;;1.98;1.20;;;6.30;99.90;;;;;;5136329;27;20215;-82
2021/04/16 05:51:38;;;;;;;5.30;1.80;;;6.40;99.90;;;;;;5136173;27;20229;-83
2021/04/16 05:54:05;;;;;;;4.57;2.17;;;6.40;99.90;;;;;;5136533;27;20315;-84
2021/04/16 05:56:32;;;;;;;3.15;2.65;;;6.50;99.90;;;;;;5136130;27;20246;-84
2021/04/16 05:58:59;;;;;;;3.42;1.40;;;6.60;99.90;;;;;;5136234;27;20179;-84
2021/04/16 06:01:25;;;;;;;3.05;1.30;;;6.50;99.90;;;;;;5136132;27;20211;-84
2021/04/16 06:03:51;;;;;;;4.88;1.58;;;6.40;99.90;;;;;;5135991;27;20724;-83
2021/04/16 06:06:17;;;;;;;3.55;1.30;;;6.50;99.90;;;;;;5135872;27;20218;-83
2021/04/16 06:08:44;;;;;;;3.17;1.67;;;6.50;99.90;;;;;;5135867;27;20175;-83
2021/04/16 06:11:10;;;;;;;3.45;1.45;;;6.40;99.90;;;;;;5136106;27;20218;-83
2021/04/16 06:13:37;;;;;;;2.65;1.92;;;6.50;99.90;;;;;;5135774;27;20196;-83
2021/04/16 06:16:05;;;;;;;4.50;1.85;;;6.50;99.90;;;;;;5134788;27;20205;-83
2021/04/16 06:18:32;;;;;;;6.13;1.90;;;6.70;99.90;;;;;;5135531;27;20221;-84
2021/04/16 06:20:58;;;;;;;4.53;1.63;;;6.60;99.90;;;;;;5136086;27;20605;-84
2021/04/16 06:23:24;;;;;;;2.10;1.50;;;6.70;99.90;;;;;;5135728;27;20267;-84
2021/04/16 06:25:50;;;;;;;7.80;2.10;;;6.80;99.90;;;;;;5135812;27;20184;-84
2021/04/16 06:28:18;;;;;;;3.00;1.88;;;6.80;99.90;;;;;;5135479;27;20274;-83
2021/04/16 06:30:44;;;;;;;2.45;1.50;;;6.80;99.90;;;;;;5135560;27;20179;-82
2021/04/16 06:33:20;;;;;;;4.25;1.33;;;7.00;99.90;;;;;;5135474;27;20237;-83
2021/04/16 06:35:49;;;;;;;3.05;1.30;;;7.00;99.90;;;;;;5134665;27;20183;-83
2021/04/16 06:38:17;;;;;;;2.88;1.63;;;7.30;99.90;;;;;;5132176;27;20199;-83
2021/04/16 06:40:47;;;;;;;3.13;1.65;;;7.30;99.90;;;;;;5135405;27;20262;-83
2021/04/16 06:43:13;;;;;;;2.10;1.33;;;7.40;99.90;;;;;;5135301;27;20306;-83
2021/04/16 06:45:39;;;;;;;3.90;1.30;;;7.60;99.90;;;;;;5135092;27;20684;-83
2021/04/16 06:48:09;;;;;;;4.38;1.65;;;7.80;99.90;;;;;;5135343;27;20179;-83
2021/04/16 06:50:39;;;;;;;5.95;1.83;;;8.00;99.90;;;;;;5135347;27;20215;-82
2021/04/16 06:53:11;;;;;;;7.28;2.28;;;8.00;99.90;;;;;;5135081;27;20193;-83
2021/04/16 06:55:49;;;;;;;5.10;1.58;;;7.90;99.90;;;;;;5134907;27;20334;-84
2021/04/16 06:58:18;;;;;;;2.93;1.67;;;8.00;99.90;;;;;;5134708;27;20264;-84
2021/04/16 07:00:48;;;;;;;2.28;1.45;;;8.30;99.90;;;;;;5135171;27;20483;-84
2021/04/16 07:03:23;;;;;;;2.75;1.77;;;8.20;99.90;;;;;;5134863;27;20218;-84
2021/04/16 07:05:53;;;;;;;3.30;1.40;;;8.50;99.90;;;;;;5134685;27;20607;-84
2021/04/16 07:08:26;;;;;;;2.13;1.23;;;8.80;99.90;;;;;;5134597;27;20234;-85
2021/04/16 07:11:04;;;;;;;3.13;1.37;;;9.00;99.90;;;;;;5134616;27;20240;-82
2021/04/16 07:13:35;;;;;;;3.17;1.87;;;9.10;99.90;;;;;;5134721;27;20479;-81
2021/04/16 07:16:01;;;;;;;4.07;1.63;;;9.20;99.90;;;;;;5134809;27;20536;-81
2021/04/16 07:18:35;;;;;;;3.70;1.60;;;9.40;99.90;;;;;;5134556;27;20445;-82
2021/04/16 07:21:02;;;;;;;4.77;1.50;;;9.60;99.90;;;;;;5134536;27;20211;-83
2021/04/16 07:23:28;;;;;;;8.43;1.60;;;9.80;99.90;;;;;;5134490;27;20473;-83
2021/04/16 07:26:08;;;;;;;1.80;1.40;;;9.70;99.90;;;;;;5134330;27;20917;-83
2021/04/16 07:28:45;;;;;;;4.03;1.60;;;9.40;99.90;;;;;;5134497;27;20441;-84
2021/04/16 07:31:37;;;;;;;3.50;1.50;;;9.40;99.90;;;;;;5134518;27;20821;-85
2021/04/16 07:34:06;;;;;;;3.77;1.50;;;9.40;99.90;;;;;;5134647;27;20477;-84
2021/04/16 07:36:35;;;;;;;1.30;1.20;;;9.00;99.90;;;;;;5134636;27;20486;-84
2021/04/16 07:39:20;;;;;;;4.27;1.50;;;9.00;99.90;;;;;;5133955;27;20467;-85
2021/04/16 07:41:49;;;;;;;4.70;1.53;;;9.10;99.90;;;;;;5134290;27;20962;-84
2021/04/16 07:44:22;;;;;;;3.27;1.53;;;8.80;99.90;;;;;;5134560;27;20564;-84
2021/04/16 07:46:51;;;;;;;2.60;1.80;;;8.70;99.90;;;;;;5134289;27;20441;-84
2021/04/16 07:49:27;;;;;;;3.27;1.30;;;8.70;99.90;;;;;;5134209;27;20471;-83
2021/04/16 07:51:57;;;;;;;2.58;1.67;;;8.60;99.90;;;;;;5134163;27;20440;-83
2021/04/16 07:54:26;;;;;;;1.77;1.37;;;8.80;99.90;;;;;;5133736;27;20183;-83
2021/04/16 07:57:06;;;;;;;2.10;1.30;;;9.10;99.90;;;;;;5133808;27;20465;-82
2021/04/16 07:59:53;;;;;;;3.43;1.77;;;9.20;99.90;;;;;;5133844;27;20441;-82
2021/04/16 08:02:25;;;;;;;4.10;1.60;;;9.30;99.90;;;;;;5133793;27;20874;-83
2021/04/16 08:04:51;;;;;;;1.93;1.20;;;9.40;99.90;;;;;;5133762;27;20538;-82
2021/04/16 08:07:20;;;;;;;6.10;1.30;;;9.50;99.90;;;;;;5133884;27;20536;-82
2021/04/16 08:09:46;;;;;;;4.70;1.70;;;9.50;99.90;;;;;;5133794;27;20532;-83
2021/04/16 08:12:14;;;;;;;3.58;2.53;;;9.20;99.90;;;;;;5133853;27;20532;-84
2021/04/16 08:14:43;;;;;;;1.98;1.30;;;8.90;99.90;;;;;;5117025;27;20535;-83
2021/04/16 08:17:21;;;;;;;2.10;1.80;;;8.80;99.90;;;;;;5133789;27;20286;-83
2021/04/16 08:19:47;;;;;;;7.05;1.85;;;8.70;99.90;;;;;;5133760;27;20449;-84
2021/04/16 08:22:17;;;;;;;4.15;1.80;;;8.70;99.90;;;;;;5133798;27;20191;-83
2021/04/16 08:24:49;;;;;;;2.70;1.27;;;8.90;99.90;;;;;;5117071;27;20245;-83
2021/04/16 08:27:31;;;;;;;1.45;1.25;;;9.00;99.90;;;;;;5127551;27;20280;-84
2021/04/16 08:30:03;;;;;;;3.97;1.70;;;9.10;99.90;;;;;;5124507;27;20221;-84
2021/04/16 08:32:33;;;;;;;4.57;1.20;;;9.00;99.90;;;;;;5124506;27;20460;-83
2021/04/16 08:35:04;;;;;;;3.40;1.55;;;9.30;99.90;;;;;;5124844;28;20472;-83
2021/04/16 08:37:36;;;;;;;2.03;1.30;;;9.60;99.90;;;;;;5125918;28;20745;-83
2021/04/16 08:40:07;;;;;;;3.10;1.50;;;9.80;99.90;;;;;;5129048;27;20524;-84
2021/04/16 08:42:35;;;;;;;2.90;1.43;;;9.90;99.90;;;;;;5130891;27;20497;-84
2021/04/16 08:45:06;;;;;;;2.20;1.90;;;10.20;99.90;;;;;;5126612;27;20508;-81
2021/04/16 08:47:38;;;;;;;4.37;1.70;;;10.20;99.90;;;;;;5124909;27;20537;-81
2021/04/16 08:50:05;;;;;;;3.60;1.50;;;10.10;99.90;;;;;;5132645;27;20535;-81
2021/04/16 08:52:38;;;;;;;1.73;1.30;;;10.10;99.90;;;;;;5137414;27;20473;-81
2021/04/16 08:55:19;;;;;;;3.17;1.77;;;10.20;99.90;;;;;;5136917;27;20503;-81
2021/04/16 08:57:52;;;;;;;2.80;1.10;;;10.00;99.90;;;;;;5137408;27;20452;-81
2021/04/16 09:00:22;;;;;;;1.93;1.40;;;10.10;99.90;;;;;;5137241;27;20449;-81
2021/04/16 09:02:51;;;;;;;2.70;1.60;;;10.10;99.90;;;;;;5137330;27;20479;-80
2021/04/16 09:05:21;;;;;;;4.63;1.93;;;10.30;99.90;;;;;;5137015;27;20508;-80
2021/04/16 09:07:52;;;;;;;2.03;1.13;;;10.20;99.90;;;;;;5137617;27;20554;-80
2021/04/16 09:10:50;;;;;;;4.20;1.70;;;10.10;99.90;;;;;;5137090;27;20528;-79
2021/04/16 09:13:57;;;;;;;2.40;1.50;;;10.00;99.90;;;;;;5137091;27;20444;-80
2021/04/16 09:16:49;;;;;;;4.53;1.93;;;10.00;99.90;;;;;;5128780;27;20850;-80
2021/04/16 09:19:49;;;;;;;3.90;1.80;;;9.90;99.90;;;;;;5136938;27;20931;-80
2021/04/16 09:22:34;;;;;;;6.23;3.43;;;10.00;99.90;;;;;;5133768;27;20885;-80
2021/04/16 09:25:01;;;;;;;4.57;1.33;;;10.00;99.90;;;;;;5118732;27;20533;-79
2021/04/16 09:27:38;;;;;;;3.73;1.80;;;10.20;99.90;;;;;;5135623;27;20535;-79
2021/04/16 09:30:21;;;;;;;6.50;1.47;;;10.50;99.90;;;;;;5131766;27;20774;-80
2021/04/16 09:32:49;;;;;;;2.00;1.20;;;10.80;99.90;;;;;;5132709;27;20440;-80
2021/04/16 09:35:54;;;;;;;2.40;1.60;;;10.90;99.90;;;;;;5136458;27;20463;-79
2021/04/16 09:38:40;;;;;;;7.53;1.70;;;11.00;99.90;;;;;;5121565;27;20459;-80
2021/04/16 09:41:32;;;;;;;2.93;1.63;;;11.20;99.90;;;;;;5136125;27;20479;-80
2021/04/16 09:44:14;;;;;;;2.60;1.27;;;11.30;99.90;;;;;;5136271;27;20490;-81
2021/04/16 09:46:46;;;;;;;2.00;1.20;;;11.50;99.90;;;;;;5119627;27;20951;-80
2021/04/16 09:49:31;;;;;;;3.60;1.47;;;11.40;99.90;;;;;;5136262;27;20480;-80
2021/04/16 09:51:59;;;;;;;2.30;1.40;;;11.40;99.90;;;;;;5136479;27;20444;-80
2021/04/16 09:54:40;;;;;;;2.17;1.30;;;11.50;99.90;;;;;;5136216;27;20441;-79
2021/04/16 09:57:28;;;;;;;1.53;1.20;;;11.30;99.90;;;;;;5136372;27;20436;-80
2021/04/16 09:59:56;;;;;;;3.43;1.27;;;11.10;99.90;;;;;;5136290;27;20464;-80
2021/04/16 10:02:36;;;;;;;2.20;1.27;;;11.20;99.90;;;;;;5136283;27;20547;-80
2021/04/16 10:05:10;;;;;;;4.00;1.20;;;11.40;99.90;;;;;;5136026;27;20479;-80
2021/04/16 10:07:39;;;;;;;2.03;1.60;;;11.50;99.90;;;;;;5135689;27;20444;-80
2021/04/16 10:10:11;;;;;;;5.33;1.10;;;11.70;99.90;;;;;;5135991;27;20476;-80
2021/04/16 10:12:39;;;;;;;2.80;1.20;;;11.90;99.90;;;;;;5135742;27;20483;-80
2021/04/16 10:15:19;;;;;;;4.63;1.50;;;11.70;99.90;;;;;;5135937;27;20445;-79
2021/04/16 10:18:00;;;;;;;3.90;1.20;;;11.70;99.90;;;;;;5135833;27;20444;-79
2021/04/16 10:20:38;;;;;;;1.70;1.20;;;11.60;99.90;;;;;;5135450;27;21018;-80
2021/04/16 10:23:19;;;;;;;6.07;1.77;;;11.30;99.90;;;;;;5135857;27;20595;-79
2021/04/16 12:39:49;;;;;;;2.80;1.47;;;12.20;96.50;;;;;;5124599;27;20565;-79
2021/04/16 12:42:15;;;;;;;1.90;1.60;;;12.30;96.40;;;;;;5132945;28;20919;-79
2021/04/16 12:44:47;;;;;;;1.87;1.00;;;12.50;95.90;;;;;;5133416;27;20469;-79
2021/04/16 12:47:17;;;;;;;1.20;0.93;;;12.60;95.80;;;;;;5133437;28;20472;-79
2021/04/16 12:49:43;;;;;;;2.37;1.33;;;12.80;95.60;;;;;;5133376;28;20481;-79
2021/04/16 12:52:10;;;;;;;1.40;1.20;;;13.10;94.80;;;;;;5132000;28;20535;-79
2021/04/16 12:54:38;;;;;;;1.00;0.90;;;13.10;94.50;;;;;;5132867;28;20798;-79
2021/04/16 12:57:06;;;;;;;3.93;1.10;;;13.00;94.90;;;;;;5132646;28;20441;-79
2021/04/16 12:59:34;;;;;;;1.80;1.07;;;12.80;95.80;;;;;;5133154;27;20484;-79
2021/04/16 13:02:01;;;;;;;2.23;1.33;;;12.90;97.00;;;;;;5133075;28;20472;-79
2021/04/16 13:04:27;;;;;;;2.50;1.30;;;13.10;96.40;;;;;;5133101;27;20504;-79
2021/04/16 13:06:58;;;;;;;1.80;1.17;;;12.90;95.40;;;;;;5132924;28;20475;-79
2021/04/16 13:09:24;;;;;;;5.53;1.50;;;13.00;94.80;;;;;;5133177;28;20444;-80
2021/04/16 13:11:51;;;;;;;3.30;1.33;;;13.30;94.70;;;;;;5133075;27;20513;-79
2021/04/16 13:14:18;;;;;;;3.73;1.10;;;13.40;94.90;;;;;;5133055;28;20583;-79
2021/04/16 13:16:45;;;;;;;1.83;1.00;;;13.20;94.90;;;;;;5131469;27;20890;-79
2021/04/16 13:19:25;;;;;;;3.30;1.27;;;13.30;94.60;;;;;;5129184;27;20531;-79
2021/04/16 13:21:56;;;;;;;3.33;1.20;;;13.00;93.80;;;;;;5132754;28;20849;-79
2021/04/16 13:24:22;;;;;;;1.10;1.00;;;13.00;94.40;;;;;;5134415;27;20522;-79
2021/04/16 13:26:48;;;;;;;2.10;1.10;;;12.90;93.80;;;;;;5136499;27;20514;-79
2021/04/16 13:29:14;;;;;;;1.50;1.17;;;12.80;93.60;;;;;;5136631;27;20887;-79
2021/04/16 13:31:40;;;;;;;2.50;1.30;;;12.80;94.10;;;;;;5136544;27;20483;-79
2021/04/16 13:34:06;;;;;;;2.97;1.40;;;12.60;93.90;;;;;;5136237;27;20451;-79
2021/04/16 13:36:34;;;;;;;1.37;1.10;;;12.50;94.60;;;;;;5136313;27;20527;-79
2021/04/16 13:39:00;;;;;;;1.63;0.93;;;12.30;94.90;;;;;;5136517;27;20463;-80
2021/04/16 13:41:27;;;;;;;3.07;1.10;;;12.10;95.30;;;;;;5136519;27;20531;-80
2021/04/16 13:43:55;;;;;;;1.80;1.10;;;12.00;95.40;;;;;;5136314;27;20547;-80
2021/04/16 13:46:24;;;;;;;3.10;0.90;;;11.80;94.20;;;;;;5136268;27;20535;-79
2021/04/16 13:48:50;;;;;;;3.53;1.00;;;11.80;92.70;;;;;;5135976;27;20977;-79
2021/04/16 13:51:18;;;;;;;2.40;1.30;;;11.70;92.20;;;;;;5136317;27;20448;-80
2021/04/16 13:53:45;;;;;;;3.83;1.57;;;11.80;92.60;;;;;;5136285;27;20532;-79
2021/04/16 13:56:11;;;;;;;3.17;1.10;;;11.80;92.90;;;;;;5136072;27;20556;-79
2021/04/16 13:58:37;;;;;;;3.83;1.50;;;12.00;94.20;;;;;;5133805;27;20445;-79
2021/04/16 14:01:04;;;;;;;4.10;1.43;;;11.90;94.50;;;;;;5135997;27;20840;-80
2021/04/16 14:03:34;;;;;;;2.67;1.20;;;12.10;94.80;;;;;;5135753;27;20831;-80
2021/04/16 14:06:04;;;;;;;2.07;1.10;;;12.60;95.00;;;;;;5135722;27;20539;-80
2021/04/16 14:08:33;;;;;;;2.40;1.10;;;12.80;93.90;;;;;;5135969;27;20864;-80
2021/04/16 14:11:01;;;;;;;1.03;0.93;;;12.90;93.80;;;;;;5135824;27;20580;-80
2021/04/16 14:13:27;;;;;;;3.13;1.20;;;13.00;94.10;;;;;;5135522;27;20966;-80
2021/04/16 14:15:54;;;;;;;1.23;1.13;;;13.00;93.50;;;;;;5136023;27;20444;-80
2021/04/16 14:18:28;;;;;;;1.43;1.20;;;13.00;94.00;;;;;;5135201;27;20449;-80
2021/04/16 14:20:54;;;;;;;3.73;1.40;;;12.90;94.00;;;;;;5135881;27;20856;-80
2021/04/16 14:23:22;;;;;;;1.53;0.97;;;12.80;94.40;;;;;;5135443;27;20509;-80
2021/04/16 14:25:48;;;;;;;2.47;1.50;;;12.90;94.80;;;;;;5131556;27;21047;-80
2021/04/16 14:28:16;;;;;;;3.67;1.17;;;13.10;94.40;;;;;;5132166;27;20437;-80
2021/04/16 14:30:44;;;;;;;3.40;1.03;;;13.10;93.40;;;;;;5135567;27;20540;-80
2021/04/16 14:33:13;;;;;;;1.57;1.10;;;13.20;92.60;;;;;;5135123;27;20445;-80
2021/04/16 14:35:39;;;;;;;4.93;1.27;;;13.30;92.20;;;;;;5134162;27;20834;-80
2021/04/16 14:38:05;;;;;;;2.20;1.00;;;13.10;92.00;;;;;;5135344;27;20954;-80
2021/04/16 14:40:32;;;;;;;3.90;1.10;;;13.20;92.00;;;;;;5135157;27;20477;-80
2021/04/16 14:42:59;;;;;;;2.27;1.50;;;13.20;91.50;;;;;;5135107;27;20901;-80
2021/04/16 14:45:28;;;;;;;2.20;1.17;;;13.10;91.10;;;;;;5135191;27;20515;-80
2021/04/16 14:47:56;;;;;;;1.10;1.00;;;13.00;91.20;;;;;;5134990;27;20537;-80
2021/04/16 14:50:23;;;;;;;1.80;1.10;;;13.10;91.80;;;;;;5128844;27;20461;-80
2021/04/16 14:52:50;;;;;;;4.40;1.60;;;13.20;92.50;;;;;;5126149;27;20468;-80
2021/04/16 14:55:21;;;;;;;3.13;1.43;;;13.40;92.60;;;;;;5125312;27;21063;-80
2021/04/16 14:57:47;;;;;;;3.83;1.20;;;13.60;92.80;;;;;;5124440;27;20450;-80
2021/04/16 15:00:17;;;;;;;1.90;1.00;;;13.70;92.30;;;;;;5125357;27;20527;-80
2021/04/16 15:02:44;;;;;;;2.60;1.40;;;13.70;92.10;;;;;;5118536;27;20521;-80
2021/04/16 15:05:11;;;;;;;1.80;1.40;;;13.60;91.50;;;;;;5134620;27;20594;-80
2021/04/16 15:07:41;;;;;;;2.37;1.60;;;13.30;91.30;;;;;;5134472;27;20499;-80
2021/04/16 15:10:09;;;;;;;3.67;1.93;;;13.10;91.70;;;;;;5134610;27;20963;-79
2021/04/16 15:12:40;;;;;;;1.90;1.10;;;13.20;91.70;;;;;;5129695;27;20567;-82
2021/04/16 15:15:11;;;;;;;1.30;1.00;;;13.20;91.30;;;;;;5107924;27;20180;-81
2021/04/16 15:17:37;;;;;;;3.23;1.73;;;13.20;90.90;;;;;;5124436;27;20531;-80